sensor_id;sensor_type;location;lat;lon;timestamp;temperature;humidity
67275;DHT22;55463;52.324;5.122;2024-03-08T00:00:19;3.96;94.03
67275;DHT22;55463;52.324;5.122;2024-03-08T00:02:45;3.92;93.76
67275;DHT22;55463;52.324;5.122;2024-03-08T00:05:12;3.90;94.05
67275;DHT22;55463;52.324;5.122;2024-03-08T00:07:39;3.95;93.65
67275;DHT22;55463;52.324;5.122;2024-03-08T00:10:08;3.89;93.83
67275;DHT22;55463;52.324;5.122;2024-03-08T00:12:41;3.89;93.69
67275;DHT22;55463;52.324;5.122;2024-03-08T00:15:09;3.87;93.45
67275;DHT22;55463;52.324;5.122;2024-03-08T00:17:37;3.89;93.22
67275;DHT22;55463;52.324;5.122;2024-03-08T00:20:03;3.87;93.38
67275;DHT22;55463;52.324;5.122;2024-03-08T00:22:34;3.86;93.34
67275;DHT22;55463;52.324;5.122;2024-03-08T00:24:59;3.86;92.90
67275;DHT22;55463;52.324;5.122;2024-03-08T00:27:25;3.86;92.57
67275;DHT22;55463;52.324;5.122;2024-03-08T00:29:50;3.83;92.58
67275;DHT22;55463;52.324;5.122;2024-03-08T00:32:16;3.81;92.50
67275;DHT22;55463;52.324;5.122;2024-03-08T00:34:42;3.83;92.59
67275;DHT22;55463;52.324;5.122;2024-03-08T00:37:08;3.82;92.40
67275;DHT22;55463;52.324;5.122;2024-03-08T00:39:33;3.78;92.29
67275;DHT22;55463;52.324;5.122;2024-03-08T00:41:59;3.76;91.78
67275;DHT22;55463;52.324;5.122;2024-03-08T00:44:24;3.75;91.86
67275;DHT22;55463;52.324;5.122;2024-03-08T00:46:50;3.74;91.72
67275;DHT22;55463;52.324;5.122;2024-03-08T00:49:15;3.74;91.57
67275;DHT22;55463;52.324;5.122;2024-03-08T00:51:42;3.75;91.63
67275;DHT22;55463;52.324;5.122;2024-03-08T00:54:08;3.72;91.65
67275;DHT22;55463;52.324;5.122;2024-03-08T00:56:34;3.71;91.60
67275;DHT22;55463;52.324;5.122;2024-03-08T00:59:01;3.71;91.29
67275;DHT22;55463;52.324;5.122;2024-03-08T01:01:28;3.71;91.30
67275;DHT22;55463;52.324;5.122;2024-03-08T01:03:53;3.68;91.37
67275;DHT22;55463;52.324;5.122;2024-03-08T01:06:19;3.65;91.58
67275;DHT22;55463;52.324;5.122;2024-03-08T01:08:45;3.68;91.42
67275;DHT22;55463;52.324;5.122;2024-03-08T01:11:13;3.65;91.43
67275;DHT22;55463;52.324;5.122;2024-03-08T01:13:39;3.64;91.25
67275;DHT22;55463;52.324;5.122;2024-03-08T01:16:04;3.61;91.44
67275;DHT22;55463;52.324;5.122;2024-03-08T01:18:30;3.59;91.49
67275;DHT22;55463;52.324;5.122;2024-03-08T01:20:55;3.57;91.61
67275;DHT22;55463;52.324;5.122;2024-03-08T01:23:21;3.54;91.62
67275;DHT22;55463;52.324;5.122;2024-03-08T01:25:46;3.55;91.47
67275;DHT22;55463;52.324;5.122;2024-03-08T01:28:14;3.51;91.80
67275;DHT22;55463;52.324;5.122;2024-03-08T01:30:39;3.50;91.84
67275;DHT22;55463;52.324;5.122;2024-03-08T01:33:05;3.45;91.86
67275;DHT22;55463;52.324;5.122;2024-03-08T01:35:30;3.45;91.86
67275;DHT22;55463;52.324;5.122;2024-03-08T01:37:56;3.41;91.97
67275;DHT22;55463;52.324;5.122;2024-03-08T01:40:21;3.40;92.12
67275;DHT22;55463;52.324;5.122;2024-03-08T01:42:47;3.35;92.03
67275;DHT22;55463;52.324;5.122;2024-03-08T01:45:13;3.37;91.99
67275;DHT22;55463;52.324;5.122;2024-03-08T01:47:39;3.37;92.00
67275;DHT22;55463;52.324;5.122;2024-03-08T01:50:05;3.33;91.94
67275;DHT22;55463;52.324;5.122;2024-03-08T01:52:32;3.30;91.90
67275;DHT22;55463;52.324;5.122;2024-03-08T01:55:03;3.30;91.91
67275;DHT22;55463;52.324;5.122;2024-03-08T01:57:32;3.23;91.84
67275;DHT22;55463;52.324;5.122;2024-03-08T02:00:00;3.20;91.74
67275;DHT22;55463;52.324;5.122;2024-03-08T02:02:30;3.24;91.80
67275;DHT22;55463;52.324;5.122;2024-03-08T02:04:57;3.23;91.79
67275;DHT22;55463;52.324;5.122;2024-03-08T02:07:22;3.20;91.73
67275;DHT22;55463;52.324;5.122;2024-03-08T02:09:48;3.17;91.81
67275;DHT22;55463;52.324;5.122;2024-03-08T02:12:13;3.16;91.93
67275;DHT22;55463;52.324;5.122;2024-03-08T02:14:39;3.12;91.94
67275;DHT22;55463;52.324;5.122;2024-03-08T02:17:05;3.13;91.91
67275;DHT22;55463;52.324;5.122;2024-03-08T02:19:30;3.12;92.08
67275;DHT22;55463;52.324;5.122;2024-03-08T02:21:57;3.12;92.20
67275;DHT22;55463;52.324;5.122;2024-03-08T02:24:23;3.09;92.20
67275;DHT22;55463;52.324;5.122;2024-03-08T02:26:49;3.09;92.12
67275;DHT22;55463;52.324;5.122;2024-03-08T02:29:14;3.05;92.11
67275;DHT22;55463;52.324;5.122;2024-03-08T02:31:40;3.05;92.10
67275;DHT22;55463;52.324;5.122;2024-03-08T02:34:05;3.03;92.07
67275;DHT22;55463;52.324;5.122;2024-03-08T02:36:31;3.02;92.19
67275;DHT22;55463;52.324;5.122;2024-03-08T02:39:02;2.99;92.12
67275;DHT22;55463;52.324;5.122;2024-03-08T02:41:28;3.02;92.03
67275;DHT22;55463;52.324;5.122;2024-03-08T02:43:53;3.00;92.37
67275;DHT22;55463;52.324;5.122;2024-03-08T02:46:20;2.99;92.37
67275;DHT22;55463;52.324;5.122;2024-03-08T02:48:46;2.97;92.13
67275;DHT22;55463;52.324;5.122;2024-03-08T02:51:12;2.97;92.32
67275;DHT22;55463;52.324;5.122;2024-03-08T02:53:38;2.95;92.44
67275;DHT22;55463;52.324;5.122;2024-03-08T02:56:04;2.91;92.50
67275;DHT22;55463;52.324;5.122;2024-03-08T02:58:36;2.88;92.62
67275;DHT22;55463;52.324;5.122;2024-03-08T03:01:02;2.88;92.23
67275;DHT22;55463;52.324;5.122;2024-03-08T03:03:28;2.88;92.05
67275;DHT22;55463;52.324;5.122;2024-03-08T03:05:53;2.86;92.37
67275;DHT22;55463;52.324;5.122;2024-03-08T03:08:22;2.85;92.40
67275;DHT22;55463;52.324;5.122;2024-03-08T03:10:47;2.86;92.44
67275;DHT22;55463;52.324;5.122;2024-03-08T03:13:13;2.82;92.66
67275;DHT22;55463;52.324;5.122;2024-03-08T03:15:39;2.82;92.44
67275;DHT22;55463;52.324;5.122;2024-03-08T03:18:07;2.81;92.42
67275;DHT22;55463;52.324;5.122;2024-03-08T03:20:33;2.78;92.42
67275;DHT22;55463;52.324;5.122;2024-03-08T03:23:02;2.78;92.32
67275;DHT22;55463;52.324;5.122;2024-03-08T03:25:28;2.79;92.28
67275;DHT22;55463;52.324;5.122;2024-03-08T03:28:03;2.75;92.22
67275;DHT22;55463;52.324;5.122;2024-03-08T03:30:30;2.74;92.32
67275;DHT22;55463;52.324;5.122;2024-03-08T03:32:59;2.72;92.52
67275;DHT22;55463;52.324;5.122;2024-03-08T03:35:26;2.71;92.48
67275;DHT22;55463;52.324;5.122;2024-03-08T03:37:52;2.69;92.71
67275;DHT22;55463;52.324;5.122;2024-03-08T03:40:36;2.69;92.56
67275;DHT22;55463;52.324;5.122;2024-03-08T03:43:02;2.65;92.68
67275;DHT22;55463;52.324;5.122;2024-03-08T03:45:29;2.65;92.61
67275;DHT22;55463;52.324;5.122;2024-03-08T03:47:54;2.62;92.49
67275;DHT22;55463;52.324;5.122;2024-03-08T03:50:20;2.60;92.80
67275;DHT22;55463;52.324;5.122;2024-03-08T03:52:47;2.60;92.82
67275;DHT22;55463;52.324;5.122;2024-03-08T03:55:13;2.57;92.54
67275;DHT22;55463;52.324;5.122;2024-03-08T03:57:39;2.54;92.81
67275;DHT22;55463;52.324;5.122;2024-03-08T04:00:05;2.52;92.88
67275;DHT22;55463;52.324;5.122;2024-03-08T04:02:31;2.51;93.02
67275;DHT22;55463;52.324;5.122;2024-03-08T04:04:57;2.51;92.99
67275;DHT22;55463;52.324;5.122;2024-03-08T04:07:22;2.51;92.84
67275;DHT22;55463;52.324;5.122;2024-03-08T04:09:47;2.48;92.93
67275;DHT22;55463;52.324;5.122;2024-03-08T04:12:13;2.45;92.82
67275;DHT22;55463;52.324;5.122;2024-03-08T04:14:41;2.44;92.74
67275;DHT22;55463;52.324;5.122;2024-03-08T04:17:07;2.37;92.98
67275;DHT22;55463;52.324;5.122;2024-03-08T04:19:34;2.36;93.23
67275;DHT22;55463;52.324;5.122;2024-03-08T04:22:00;2.41;93.20
67275;DHT22;55463;52.324;5.122;2024-03-08T04:24:26;2.38;93.05
67275;DHT22;55463;52.324;5.122;2024-03-08T04:26:52;2.40;93.17
67275;DHT22;55463;52.324;5.122;2024-03-08T04:29:18;2.38;93.24
67275;DHT22;55463;52.324;5.122;2024-03-08T04:31:43;2.40;93.27
67275;DHT22;55463;52.324;5.122;2024-03-08T04:34:10;2.34;93.13
67275;DHT22;55463;52.324;5.122;2024-03-08T04:36:35;2.32;93.17
67275;DHT22;55463;52.324;5.122;2024-03-08T04:39:00;2.29;93.20
67275;DHT22;55463;52.324;5.122;2024-03-08T04:41:26;2.30;93.34
67275;DHT22;55463;52.324;5.122;2024-03-08T04:43:51;2.32;93.14
67275;DHT22;55463;52.324;5.122;2024-03-08T04:46:17;2.34;92.88
67275;DHT22;55463;52.324;5.122;2024-03-08T04:48:43;2.33;93.12
67275;DHT22;55463;52.324;5.122;2024-03-08T04:51:09;2.29;93.02
67275;DHT22;55463;52.324;5.122;2024-03-08T04:53:35;2.32;93.03
67275;DHT22;55463;52.324;5.122;2024-03-08T04:56:00;2.33;92.93
67275;DHT22;55463;52.324;5.122;2024-03-08T04:58:31;2.27;93.12
67275;DHT22;55463;52.324;5.122;2024-03-08T05:00:57;2.27;93.35
67275;DHT22;55463;52.324;5.122;2024-03-08T05:03:22;2.26;93.13
67275;DHT22;55463;52.324;5.122;2024-03-08T05:05:52;2.23;93.14
67275;DHT22;55463;52.324;5.122;2024-03-08T05:08:17;2.24;93.20
67275;DHT22;55463;52.324;5.122;2024-03-08T05:10:44;2.22;93.15
67275;DHT22;55463;52.324;5.122;2024-03-08T05:13:09;2.23;93.15
67275;DHT22;55463;52.324;5.122;2024-03-08T05:15:35;2.22;93.33
67275;DHT22;55463;52.324;5.122;2024-03-08T05:18:01;2.22;93.47
67275;DHT22;55463;52.324;5.122;2024-03-08T05:20:27;2.20;93.22
67275;DHT22;55463;52.324;5.122;2024-03-08T05:22:52;2.22;93.17
67275;DHT22;55463;52.324;5.122;2024-03-08T05:25:18;2.20;93.49
67275;DHT22;55463;52.324;5.122;2024-03-08T05:27:43;2.17;93.56
67275;DHT22;55463;52.324;5.122;2024-03-08T05:30:09;2.19;93.31
67275;DHT22;55463;52.324;5.122;2024-03-08T05:32:40;2.19;93.18
67275;DHT22;55463;52.324;5.122;2024-03-08T05:35:06;2.16;93.49
67275;DHT22;55463;52.324;5.122;2024-03-08T05:37:32;2.20;93.47
67275;DHT22;55463;52.324;5.122;2024-03-08T05:39:58;2.16;93.63
67275;DHT22;55463;52.324;5.122;2024-03-08T05:42:26;2.14;93.59
67275;DHT22;55463;52.324;5.122;2024-03-08T05:44:53;2.17;93.32
67275;DHT22;55463;52.324;5.122;2024-03-08T05:47:20;2.16;93.39
67275;DHT22;55463;52.324;5.122;2024-03-08T05:49:46;2.17;93.35
67275;DHT22;55463;52.324;5.122;2024-03-08T05:52:11;2.19;93.27
67275;DHT22;55463;52.324;5.122;2024-03-08T05:54:40;2.17;93.26
67275;DHT22;55463;52.324;5.122;2024-03-08T05:57:06;2.17;93.17
67275;DHT22;55463;52.324;5.122;2024-03-08T05:59:31;2.17;93.09
67275;DHT22;55463;52.324;5.122;2024-03-08T06:01:57;2.13;92.91
67275;DHT22;55463;52.324;5.122;2024-03-08T06:04:22;2.12;92.70
67275;DHT22;55463;52.324;5.122;2024-03-08T06:06:48;2.09;92.77
67275;DHT22;55463;52.324;5.122;2024-03-08T06:09:13;2.09;92.72
67275;DHT22;55463;52.324;5.122;2024-03-08T06:11:42;2.07;92.70
67275;DHT22;55463;52.324;5.122;2024-03-08T06:14:08;2.05;92.72
67275;DHT22;55463;52.324;5.122;2024-03-08T06:16:33;2.05;92.85
67275;DHT22;55463;52.324;5.122;2024-03-08T06:19:01;2.07;92.62
67275;DHT22;55463;52.324;5.122;2024-03-08T06:21:29;2.05;92.51
67275;DHT22;55463;52.324;5.122;2024-03-08T06:23:54;2.03;92.69
67275;DHT22;55463;52.324;5.122;2024-03-08T06:26:21;2.02;92.70
67275;DHT22;55463;52.324;5.122;2024-03-08T06:28:47;2.05;92.70
67275;DHT22;55463;52.324;5.122;2024-03-08T06:31:13;2.05;92.40
67275;DHT22;55463;52.324;5.122;2024-03-08T06:33:40;2.07;92.33
67275;DHT22;55463;52.324;5.122;2024-03-08T06:36:05;2.07;92.34
67275;DHT22;55463;52.324;5.122;2024-03-08T06:38:31;2.03;92.66
67275;DHT22;55463;52.324;5.122;2024-03-08T06:40:56;2.09;92.13
67275;DHT22;55463;52.324;5.122;2024-03-08T06:43:21;2.13;92.32
67275;DHT22;55463;52.324;5.122;2024-03-08T06:45:47;2.16;92.34
67275;DHT22;55463;52.324;5.122;2024-03-08T06:48:16;2.16;92.25
67275;DHT22;55463;52.324;5.122;2024-03-08T06:50:46;2.16;92.18
67275;DHT22;55463;52.324;5.122;2024-03-08T06:53:12;2.17;92.00
67275;DHT22;55463;52.324;5.122;2024-03-08T06:55:37;2.19;92.28
67275;DHT22;55463;52.324;5.122;2024-03-08T06:58:03;2.19;92.06
67275;DHT22;55463;52.324;5.122;2024-03-08T07:00:29;2.23;92.08
67275;DHT22;55463;52.324;5.122;2024-03-08T07:02:56;2.27;92.16
67275;DHT22;55463;52.324;5.122;2024-03-08T07:05:26;2.27;92.23
67275;DHT22;55463;52.324;5.122;2024-03-08T07:07:52;2.32;91.80
67275;DHT22;55463;52.324;5.122;2024-03-08T07:10:18;2.36;91.20
67275;DHT22;55463;52.324;5.122;2024-03-08T07:12:44;2.40;91.50
67275;DHT22;55463;52.324;5.122;2024-03-08T07:15:12;2.55;90.93
67275;DHT22;55463;52.324;5.122;2024-03-08T07:17:44;2.77;90.36
67275;DHT22;55463;52.324;5.122;2024-03-08T07:20:10;2.85;89.95
67275;DHT22;55463;52.324;5.122;2024-03-08T07:22:38;3.00;89.56
67275;DHT22;55463;52.324;5.122;2024-03-08T07:25:09;3.22;89.43
67275;DHT22;55463;52.324;5.122;2024-03-08T07:27:51;3.31;88.62
67275;DHT22;55463;52.324;5.122;2024-03-08T07:30:25;3.42;88.63
67275;DHT22;55463;52.324;5.122;2024-03-08T07:33:08;3.37;88.20
67275;DHT22;55463;52.324;5.122;2024-03-08T07:35:37;3.40;87.93
67275;DHT22;55463;52.324;5.122;2024-03-08T07:38:12;3.51;87.73
67275;DHT22;55463;52.324;5.122;2024-03-08T07:40:38;3.68;87.11
67275;DHT22;55463;52.324;5.122;2024-03-08T07:43:10;3.74;86.92
67275;DHT22;55463;52.324;5.122;2024-03-08T07:45:39;3.57;87.09
67275;DHT22;55463;52.324;5.122;2024-03-08T07:48:05;3.47;87.48
67275;DHT22;55463;52.324;5.122;2024-03-08T07:50:40;3.42;87.67
67275;DHT22;55463;52.324;5.122;2024-03-08T07:53:07;3.45;87.49
67275;DHT22;55463;52.324;5.122;2024-03-08T07:55:33;3.52;87.35
67275;DHT22;55463;52.324;5.122;2024-03-08T07:58:00;3.65;87.62
67275;DHT22;55463;52.324;5.122;2024-03-08T08:00:26;3.61;87.43
67275;DHT22;55463;52.324;5.122;2024-03-08T08:02:53;3.57;87.38
67275;DHT22;55463;52.324;5.122;2024-03-08T08:05:19;3.51;87.66
67275;DHT22;55463;52.324;5.122;2024-03-08T08:07:47;3.47;87.73
67275;DHT22;55463;52.324;5.122;2024-03-08T08:10:13;3.41;87.69
67275;DHT22;55463;52.324;5.122;2024-03-08T08:12:48;3.44;88.20
67275;DHT22;55463;52.324;5.122;2024-03-08T08:15:14;3.40;87.77
67275;DHT22;55463;52.324;5.122;2024-03-08T08:17:46;3.41;87.84
67275;DHT22;55463;52.324;5.122;2024-03-08T08:20:13;3.47;88.05
67275;DHT22;55463;52.324;5.122;2024-03-08T08:22:41;3.47;87.87
67275;DHT22;55463;52.324;5.122;2024-03-08T08:25:08;3.51;87.80
67275;DHT22;55463;52.324;5.122;2024-03-08T08:27:34;3.54;87.45
67275;DHT22;55463;52.324;5.122;2024-03-08T08:30:02;3.55;87.09
67275;DHT22;55463;52.324;5.122;2024-03-08T08:32:28;3.58;87.61
67275;DHT22;55463;52.324;5.122;2024-03-08T08:34:53;3.62;87.59
67275;DHT22;55463;52.324;5.122;2024-03-08T08:37:19;3.74;87.62
67275;DHT22;55463;52.324;5.122;2024-03-08T08:39:44;3.95;86.81
67275;DHT22;55463;52.324;5.122;2024-03-08T08:42:10;4.27;87.18
67275;DHT22;55463;52.324;5.122;2024-03-08T08:44:36;4.55;86.04
67275;DHT22;55463;52.324;5.122;2024-03-08T08:47:02;4.89;85.85
67275;DHT22;55463;52.324;5.122;2024-03-08T08:49:29;5.10;84.78
67275;DHT22;55463;52.324;5.122;2024-03-08T08:51:55;5.48;84.77
67275;DHT22;55463;52.324;5.122;2024-03-08T08:54:23;5.75;83.20
67275;DHT22;55463;52.324;5.122;2024-03-08T08:56:50;6.18;83.50
67275;DHT22;55463;52.324;5.122;2024-03-08T08:59:19;6.49;81.52
67275;DHT22;55463;52.324;5.122;2024-03-08T09:01:45;6.76;80.85
67275;DHT22;55463;52.324;5.122;2024-03-08T09:04:12;7.01;79.18
67275;DHT22;55463;52.324;5.122;2024-03-08T09:06:38;7.21;79.93
67275;DHT22;55463;52.324;5.122;2024-03-08T09:09:06;7.54;80.56
67275;DHT22;55463;52.324;5.122;2024-03-08T09:11:34;7.54;78.30
67275;DHT22;55463;52.324;5.122;2024-03-08T09:14:00;7.67;77.14
67275;DHT22;55463;52.324;5.122;2024-03-08T09:16:27;8.04;78.26
67275;DHT22;55463;52.324;5.122;2024-03-08T09:18:52;8.38;77.87
67275;DHT22;55463;52.324;5.122;2024-03-08T09:21:18;8.45;75.05
67275;DHT22;55463;52.324;5.122;2024-03-08T09:23:43;8.56;74.24
67275;DHT22;55463;52.324;5.122;2024-03-08T09:26:10;9.00;74.85
67275;DHT22;55463;52.324;5.122;2024-03-08T09:28:44;9.07;74.67
67275;DHT22;55463;52.324;5.122;2024-03-08T09:31:10;9.48;73.85
67275;DHT22;55463;52.324;5.122;2024-03-08T09:33:37;9.66;72.83
67275;DHT22;55463;52.324;5.122;2024-03-08T09:36:04;10.04;72.93
67275;DHT22;55463;52.324;5.122;2024-03-08T09:38:30;10.04;71.69
67275;DHT22;55463;52.324;5.122;2024-03-08T09:40:55;10.18;72.22
67275;DHT22;55463;52.324;5.122;2024-03-08T09:43:22;10.35;71.77
67275;DHT22;55463;52.324;5.122;2024-03-08T09:45:52;10.29;70.29
67275;DHT22;55463;52.324;5.122;2024-03-08T09:48:18;10.53;70.26
67275;DHT22;55463;52.324;5.122;2024-03-08T09:50:45;10.79;70.35
67275;DHT22;55463;52.324;5.122;2024-03-08T09:53:13;10.77;70.15
67275;DHT22;55463;52.324;5.122;2024-03-08T09:55:39;10.79;70.07
67275;DHT22;55463;52.324;5.122;2024-03-08T09:58:14;10.94;69.67
67275;DHT22;55463;52.324;5.122;2024-03-08T10:00:59;11.06;70.15
67275;DHT22;55463;52.324;5.122;2024-03-08T10:03:28;11.61;69.30
67275;DHT22;55463;52.324;5.122;2024-03-08T10:05:56;11.46;68.35
67275;DHT22;55463;52.324;5.122;2024-03-08T10:08:26;12.00;67.83
67275;DHT22;55463;52.324;5.122;2024-03-08T10:10:52;11.73;66.18
67275;DHT22;55463;52.324;5.122;2024-03-08T10:13:17;11.74;66.48
67275;DHT22;55463;52.324;5.122;2024-03-08T10:15:45;11.86;67.37
67275;DHT22;55463;52.324;5.122;2024-03-08T10:18:10;12.28;67.07
67275;DHT22;55463;52.324;5.122;2024-03-08T10:20:36;12.29;66.56
67275;DHT22;55463;52.324;5.122;2024-03-08T10:23:04;12.48;66.48
67275;DHT22;55463;52.324;5.122;2024-03-08T10:25:34;12.62;64.81
67275;DHT22;55463;52.324;5.122;2024-03-08T10:27:59;12.60;64.73
67275;DHT22;55463;52.324;5.122;2024-03-08T10:30:25;12.91;64.85
67275;DHT22;55463;52.324;5.122;2024-03-08T10:32:50;13.03;64.78
67275;DHT22;55463;52.324;5.122;2024-03-08T10:35:17;13.22;63.64
67275;DHT22;55463;52.324;5.122;2024-03-08T10:37:47;13.38;64.76
67275;DHT22;55463;52.324;5.122;2024-03-08T10:40:17;13.14;65.18
67275;DHT22;55463;52.324;5.122;2024-03-08T10:42:54;13.17;63.24
67275;DHT22;55463;52.324;5.122;2024-03-08T10:45:31;13.22;63.65
67275;DHT22;55463;52.324;5.122;2024-03-08T10:48:08;13.62;64.79
67275;DHT22;55463;52.324;5.122;2024-03-08T10:50:38;13.35;63.14
67275;DHT22;55463;52.324;5.122;2024-03-08T10:53:06;13.62;63.39
67275;DHT22;55463;52.324;5.122;2024-03-08T10:55:36;13.60;64.19
67275;DHT22;55463;52.324;5.122;2024-03-08T10:58:02;13.49;62.99
67275;DHT22;55463;52.324;5.122;2024-03-08T11:00:27;13.38;62.47
67275;DHT22;55463;52.324;5.122;2024-03-08T11:02:53;13.62;63.30
67275;DHT22;55463;52.324;5.122;2024-03-08T11:05:39;13.58;62.73
67275;DHT22;55463;52.324;5.122;2024-03-08T11:08:18;13.34;62.39
67275;DHT22;55463;52.324;5.122;2024-03-08T11:10:51;13.73;62.78
67275;DHT22;55463;52.324;5.122;2024-03-08T11:13:40;13.93;61.62
67275;DHT22;55463;52.324;5.122;2024-03-08T11:21:43;14.77;62.86
67275;DHT22;55463;52.324;5.122;2024-03-08T11:24:13;14.59;60.38
67275;DHT22;55463;52.324;5.122;2024-03-08T11:26:40;14.73;60.67
67275;DHT22;55463;52.324;5.122;2024-03-08T11:32:15;14.32;60.54
67275;DHT22;55463;52.324;5.122;2024-03-08T11:34:42;14.49;62.47
67275;DHT22;55463;52.324;5.122;2024-03-08T11:37:15;14.31;61.97
67275;DHT22;55463;52.324;5.122;2024-03-08T11:40:13;14.53;60.65
67275;DHT22;55463;52.324;5.122;2024-03-08T11:42:46;14.95;62.25
67275;DHT22;55463;52.324;5.122;2024-03-08T11:45:17;14.81;59.76
67275;DHT22;55463;52.324;5.122;2024-03-08T11:47:50;15.45;59.86
67275;DHT22;55463;52.324;5.122;2024-03-08T11:50:16;15.66;59.98
67275;DHT22;55463;52.324;5.122;2024-03-08T11:52:42;15.58;59.11
67275;DHT22;55463;52.324;5.122;2024-03-08T11:55:08;15.43;60.35
67275;DHT22;55463;52.324;5.122;2024-03-08T11:57:34;15.39;59.04
67275;DHT22;55463;52.324;5.122;2024-03-08T12:00:00;15.77;59.91
67275;DHT22;55463;52.324;5.122;2024-03-08T12:02:35;15.71;60.92
67275;DHT22;55463;52.324;5.122;2024-03-08T12:05:06;15.22;57.91
67275;DHT22;55463;52.324;5.122;2024-03-08T12:07:34;15.27;58.16
67275;DHT22;55463;52.324;5.122;2024-03-08T12:10:19;15.32;59.42
67275;DHT22;55463;52.324;5.122;2024-03-08T12:12:51;15.25;58.79
67275;DHT22;55463;52.324;5.122;2024-03-08T12:15:18;15.39;59.80
67275;DHT22;55463;52.324;5.122;2024-03-08T12:17:45;15.49;58.23
67275;DHT22;55463;52.324;5.122;2024-03-08T12:20:33;15.50;57.73
67275;DHT22;55463;52.324;5.122;2024-03-08T12:22:59;15.62;59.21
67275;DHT22;55463;52.324;5.122;2024-03-08T12:25:30;14.87;58.58
67275;DHT22;55463;52.324;5.122;2024-03-08T12:28:09;14.97;59.22
67275;DHT22;55463;52.324;5.122;2024-03-08T12:30:45;14.94;60.35
67275;DHT22;55463;52.324;5.122;2024-03-08T12:33:11;15.28;59.31
67275;DHT22;55463;52.324;5.122;2024-03-08T12:35:38;15.31;60.88
67275;DHT22;55463;52.324;5.122;2024-03-08T12:38:04;15.14;58.88
67275;DHT22;55463;52.324;5.122;2024-03-08T12:40:34;15.28;60.51
67275;DHT22;55463;52.324;5.122;2024-03-08T12:43:05;15.15;60.44
67275;DHT22;55463;52.324;5.122;2024-03-08T12:45:31;15.12;59.87
67275;DHT22;55463;52.324;5.122;2024-03-08T12:47:58;15.05;58.78
67275;DHT22;55463;52.324;5.122;2024-03-08T12:50:24;15.08;60.15
67275;DHT22;55463;52.324;5.122;2024-03-08T12:52:50;15.03;59.92
67275;DHT22;55463;52.324;5.122;2024-03-08T12:55:18;14.98;60.80
67275;DHT22;55463;52.324;5.122;2024-03-08T12:57:44;14.86;58.47
67275;DHT22;55463;52.324;5.122;2024-03-08T13:00:12;14.87;58.94
67275;DHT22;55463;52.324;5.122;2024-03-08T13:02:45;14.94;59.96
67275;DHT22;55463;52.324;5.122;2024-03-08T13:05:16;14.90;59.96
67275;DHT22;55463;52.324;5.122;2024-03-08T13:07:43;14.55;59.67
67275;DHT22;55463;52.324;5.122;2024-03-08T13:10:14;14.28;59.48
67275;DHT22;55463;52.324;5.122;2024-03-08T13:12:42;14.35;60.85
67275;DHT22;55463;52.324;5.122;2024-03-08T13:15:08;14.53;61.12
67275;DHT22;55463;52.324;5.122;2024-03-08T13:17:39;14.75;60.98
67275;DHT22;55463;52.324;5.122;2024-03-08T13:20:08;14.58;60.20
67275;DHT22;55463;52.324;5.122;2024-03-08T13:22:35;14.65;60.88
67275;DHT22;55463;52.324;5.122;2024-03-08T13:25:01;14.60;60.76
67275;DHT22;55463;52.324;5.122;2024-03-08T13:27:29;14.84;60.41
67275;DHT22;55463;52.324;5.122;2024-03-08T13:29:55;14.50;58.09
67275;DHT22;55463;52.324;5.122;2024-03-08T13:32:20;14.55;59.41
67275;DHT22;55463;52.324;5.122;2024-03-08T13:34:47;14.39;59.18
67275;DHT22;55463;52.324;5.122;2024-03-08T13:37:13;14.13;57.54
67275;DHT22;55463;52.324;5.122;2024-03-08T13:39:41;14.01;59.54
67275;DHT22;55463;52.324;5.122;2024-03-08T13:42:17;13.63;59.47
67275;DHT22;55463;52.324;5.122;2024-03-08T13:44:46;13.69;59.76
67275;DHT22;55463;52.324;5.122;2024-03-08T13:47:16;13.76;60.14
67275;DHT22;55463;52.324;5.122;2024-03-08T13:49:42;13.81;61.52
67275;DHT22;55463;52.324;5.122;2024-03-08T13:52:09;13.70;60.81
67275;DHT22;55463;52.324;5.122;2024-03-08T13:54:35;13.65;61.08
67275;DHT22;55463;52.324;5.122;2024-03-08T13:57:01;13.36;59.70
67275;DHT22;55463;52.324;5.122;2024-03-08T13:59:31;13.21;60.31
67275;DHT22;55463;52.324;5.122;2024-03-08T14:01:59;13.42;60.70
67275;DHT22;55463;52.324;5.122;2024-03-08T14:04:24;13.58;59.95
67275;DHT22;55463;52.324;5.122;2024-03-08T14:06:57;13.70;61.66
67275;DHT22;55463;52.324;5.122;2024-03-08T14:13:06;13.69;62.21
67275;DHT22;55463;52.324;5.122;2024-03-08T14:22:38;13.45;61.45
67275;DHT22;55463;52.324;5.122;2024-03-08T14:29:05;13.38;62.03
67275;DHT22;55463;52.324;5.122;2024-03-08T14:41:11;13.11;62.11
67275;DHT22;55463;52.324;5.122;2024-03-08T14:44:03;13.12;63.44
67275;DHT22;55463;52.324;5.122;2024-03-08T14:47:11;12.88;62.33
67275;DHT22;55463;52.324;5.122;2024-03-08T14:49:57;13.11;63.66
67275;DHT22;55463;52.324;5.122;2024-03-08T14:52:22;13.05;64.66
67275;DHT22;55463;52.324;5.122;2024-03-08T14:54:55;12.86;63.17
67275;DHT22;55463;52.324;5.122;2024-03-08T14:57:21;12.70;63.31
67275;DHT22;55463;52.324;5.122;2024-03-08T14:59:46;12.67;63.84
67275;DHT22;55463;52.324;5.122;2024-03-08T15:02:12;12.75;64.73
67275;DHT22;55463;52.324;5.122;2024-03-08T15:04:37;12.62;63.83
67275;DHT22;55463;52.324;5.122;2024-03-08T15:07:06;12.73;64.12
67275;DHT22;55463;52.324;5.122;2024-03-08T15:09:35;12.64;64.12
67275;DHT22;55463;52.324;5.122;2024-03-08T15:12:06;12.64;64.49
67275;DHT22;55463;52.324;5.122;2024-03-08T15:14:32;12.52;64.14
67275;DHT22;55463;52.324;5.122;2024-03-08T15:16:58;12.59;66.25
67275;DHT22;55463;52.324;5.122;2024-03-08T15:19:24;12.41;64.71
67275;DHT22;55463;52.324;5.122;2024-03-08T15:21:50;12.35;64.72
67275;DHT22;55463;52.324;5.122;2024-03-08T15:24:18;12.21;64.48
67275;DHT22;55463;52.324;5.122;2024-03-08T15:26:47;12.14;66.06
67275;DHT22;55463;52.324;5.122;2024-03-08T15:29:16;12.07;65.30
67275;DHT22;55463;52.324;5.122;2024-03-08T15:31:41;12.07;65.68
67275;DHT22;55463;52.324;5.122;2024-03-08T15:34:08;11.95;66.79
67275;DHT22;55463;52.324;5.122;2024-03-08T15:36:36;11.84;65.49
67275;DHT22;55463;52.324;5.122;2024-03-08T15:39:01;11.74;67.05
67275;DHT22;55463;52.324;5.122;2024-03-08T15:41:28;11.56;65.79
67275;DHT22;55463;52.324;5.122;2024-03-08T15:43:55;11.67;66.25
67275;DHT22;55463;52.324;5.122;2024-03-08T15:46:21;11.55;65.28
67275;DHT22;55463;52.324;5.122;2024-03-08T15:48:50;11.46;66.88
67275;DHT22;55463;52.324;5.122;2024-03-08T15:51:16;11.46;66.93
67275;DHT22;55463;52.324;5.122;2024-03-08T15:53:44;11.28;66.33
67275;DHT22;55463;52.324;5.122;2024-03-08T15:56:18;11.28;65.71
67275;DHT22;55463;52.324;5.122;2024-03-08T15:58:44;11.32;66.57
67275;DHT22;55463;52.324;5.122;2024-03-08T16:01:09;11.27;66.43
67275;DHT22;55463;52.324;5.122;2024-03-08T16:03:37;11.12;65.90
67275;DHT22;55463;52.324;5.122;2024-03-08T16:06:05;11.08;66.93
67275;DHT22;55463;52.324;5.122;2024-03-08T16:08:31;11.08;67.13
67275;DHT22;55463;52.324;5.122;2024-03-08T16:10:58;11.06;67.74
67275;DHT22;55463;52.324;5.122;2024-03-08T16:13:26;10.99;67.23
67275;DHT22;55463;52.324;5.122;2024-03-08T16:15:53;11.03;67.53